Time;durP1;ratioP1;P1;durP2;ratioP2;P2;SDS_P1;SDS_P2;PMS_P1;PMS_P2;Temp;Humidity;BMP_temperature;BMP_pressure;BME280_temperature;BME280_humidity;BME280_pressure;Samples;Min_cycle;Max_cycle;Signal;HPM_P1;HPM_P2
2022/10/29 00:01:03;;;;;;;12.18;8.18;;;;;;;;;;5091420;28;20400;-49
2022/10/29 00:03:29;;;;;;;15.32;9.13;;;;;;;;;;5082141;28;20056;-51
2022/10/29 00:06:00;;;;;;;15.32;8.65;;;;;;;;;;5093984;28;20083;-53
2022/10/29 00:08:28;;;;;;;16.73;9.20;;;;;;;;;;5093439;28;20052;-51
2022/10/29 00:11:11;;;;;;;14.45;8.32;;;;;;;;;;5096284;28;20086;-53
2022/10/29 00:13:37;;;;;;;12.20;7.60;;;;;;;;;;5096233;28;20052;-50
2022/10/29 00:16:08;;;;;;;14.15;7.82;;;;;;;;;;5096514;28;20048;-54
2022/10/29 00:18:36;;;;;;;13.77;8.40;;;;;;;;;;5096468;28;20055;-54
2022/10/29 00:21:03;;;;;;;15.20;10.00;;;;;;;;;;5096293;28;20052;-51
2022/10/29 00:23:32;;;;;;;9.90;6.72;;;;;;;;;;5095669;28;20048;-50
2022/10/29 00:26:00;;;;;;;12.30;7.68;;;;;;;;;;5093710;28;20147;-51
2022/10/29 00:28:28;;;;;;;13.23;8.05;;;;;;;;;;5095085;28;20047;-50
2022/10/29 00:30:58;;;;;;;14.63;8.75;;;;;;;;;;5095407;28;20460;-50
2022/10/29 00:33:28;;;;;;;13.80;8.43;;;;;;;;;;5095862;28;20468;-50
2022/10/29 00:35:57;;;;;;;14.77;8.38;;;;;;;;;;5088213;28;20044;-51
2022/10/29 00:38:28;;;;;;;14.18;7.68;;;;;;;;;;5093732;28;20067;-50
2022/10/29 00:40:55;;;;;;;15.48;8.27;;;;;;;;;;5095572;28;20105;-51
2022/10/29 00:43:32;;;;;;;13.50;8.23;;;;;;;;;;5081883;28;20067;-53
2022/10/29 00:46:00;;;;;;;10.13;6.30;;;;;;;;;;5090148;28;20052;-53
2022/10/29 00:48:30;;;;;;;16.13;8.68;;;;;;;;;;5095729;28;20479;-51
2022/10/29 00:51:01;;;;;;;15.70;8.70;;;;;;;;;;5094659;28;20082;-54
2022/10/29 00:53:37;;;;;;;15.02;8.43;;;;;;;;;;5094249;28;20353;-52
2022/10/29 00:56:06;;;;;;;19.75;10.30;;;;;;;;;;5094920;28;20040;-52
2022/10/29 00:58:47;;;;;;;14.35;8.95;;;;;;;;;;5088144;28;20131;-53
2022/10/29 01:01:14;;;;;;;19.98;9.80;;;;;;;;;;5084072;28;20474;-50
2022/10/29 01:03:40;;;;;;;18.42;9.45;;;;;;;;;;5092017;28;20051;-49
2022/10/29 01:06:07;;;;;;;16.85;9.55;;;;;;;;;;5094710;28;20047;-49
2022/10/29 01:08:39;;;;;;;10.82;7.85;;;;;;;;;;5094643;28;20052;-53
2022/10/29 01:11:15;;;;;;;13.90;7.70;;;;;;;;;;5094395;28;20454;-49
2022/10/29 01:14:02;;;;;;;13.95;7.60;;;;;;;;;;5094267;28;20048;-50
2022/10/29 01:16:38;;;;;;;9.00;6.35;;;;;;;;;;5094309;28;20055;-51
2022/10/29 01:19:12;;;;;;;10.80;6.68;;;;;;;;;;5094663;28;20455;-52
2022/10/29 01:21:54;;;;;;;13.45;6.78;;;;;;;;;;5089641;28;20048;-53
2022/10/29 01:24:35;;;;;;;12.13;6.07;;;;;;;;;;5088989;28;20353;-50
2022/10/29 01:27:21;;;;;;;16.85;9.20;;;;;;;;;;5085223;28;20626;-51
2022/10/29 01:29:59;;;;;;;9.48;6.40;;;;;;;;;;5094391;28;20062;-53
2022/10/29 01:32:35;;;;;;;13.43;7.70;;;;;;;;;;5094625;28;20532;-55
2022/10/29 01:35:08;;;;;;;12.18;7.32;;;;;;;;;;5094604;28;20052;-53
2022/10/29 01:37:40;;;;;;;14.48;8.48;;;;;;;;;;5094072;28;20358;-54
2022/10/29 01:40:13;;;;;;;13.65;7.05;;;;;;;;;;5094610;28;20059;-53
2022/10/29 01:42:42;;;;;;;14.70;7.35;;;;;;;;;;5093901;28;20071;-52
2022/10/29 01:45:19;;;;;;;18.45;10.52;;;;;;;;;;5094416;28;20048;-51
2022/10/29 01:47:55;;;;;;;15.82;9.55;;;;;;;;;;5094171;28;20052;-51
2022/10/29 01:50:23;;;;;;;14.45;8.77;;;;;;;;;;5085331;28;20475;-54
2022/10/29 01:52:51;;;;;;;15.40;7.80;;;;;;;;;;5093121;28;20043;-52
2022/10/29 01:55:21;;;;;;;11.45;6.95;;;;;;;;;;5094834;28;20059;-53
2022/10/29 01:57:47;;;;;;;15.95;9.70;;;;;;;;;;5093901;28;20068;-51
2022/10/29 02:00:24;;;;;;;13.60;7.82;;;;;;;;;;5090440;28;20051;-46
2022/10/29 02:03:08;;;;;;;16.05;9.15;;;;;;;;;;5081116;28;20139;-50
2022/10/29 02:05:39;;;;;;;13.73;8.77;;;;;;;;;;5090820;28;20071;-50
2022/10/29 02:08:15;;;;;;;14.13;7.70;;;;;;;;;;5094017;28;20044;-50
2022/10/29 02:10:48;;;;;;;13.40;7.75;;;;;;;;;;5094129;28;20048;-50
2022/10/29 02:13:22;;;;;;;13.10;7.38;;;;;;;;;;5094559;28;20058;-51
2022/10/29 02:16:00;;;;;;;12.18;6.95;;;;;;;;;;5092558;28;20071;-50
2022/10/29 02:18:39;;;;;;;19.27;9.98;;;;;;;;;;5093952;28;20052;-49
2022/10/29 02:21:09;;;;;;;13.68;8.82;;;;;;;;;;5094391;28;20062;-49
2022/10/29 02:23:38;;;;;;;11.18;6.93;;;;;;;;;;5080802;28;20437;-51
2022/10/29 02:26:06;;;;;;;12.75;7.20;;;;;;;;;;5093723;28;20155;-49
2022/10/29 02:28:34;;;;;;;11.23;7.15;;;;;;;;;;5093190;28;20048;-49
2022/10/29 02:31:03;;;;;;;8.35;5.57;;;;;;;;;;5093836;28;20051;-49
2022/10/29 02:33:43;;;;;;;10.20;7.57;;;;;;;;;;5093587;28;20044;-50
2022/10/29 02:36:13;;;;;;;9.18;5.70;;;;;;;;;;5090883;28;20460;-52
2022/10/29 02:38:39;;;;;;;8.65;5.72;;;;;;;;;;5081451;28;20056;-49
2022/10/29 02:41:06;;;;;;;9.20;5.25;;;;;;;;;;5093430;28;20040;-51
2022/10/29 02:43:36;;;;;;;11.40;6.15;;;;;;;;;;5092200;28;20055;-52
2022/10/29 02:46:15;;;;;;;10.30;6.38;;;;;;;;;;5080915;28;20082;-50
2022/10/29 02:48:58;;;;;;;10.23;5.05;;;;;;;;;;5093299;28;20044;-49
2022/10/29 02:51:25;;;;;;;7.28;4.60;;;;;;;;;;5085479;28;20488;-51
2022/10/29 02:53:52;;;;;;;11.10;6.13;;;;;;;;;;5086419;28;20071;-49
2022/10/29 02:56:20;;;;;;;8.52;5.25;;;;;;;;;;5093100;28;20360;-49
2022/10/29 02:58:50;;;;;;;9.90;5.82;;;;;;;;;;5092968;28;20059;-48
2022/10/29 03:01:20;;;;;;;10.77;6.32;;;;;;;;;;5093102;28;20491;-50
2022/10/29 03:04:02;;;;;;;12.13;6.13;;;;;;;;;;5089179;28;20715;-51
2022/10/29 03:06:37;;;;;;;8.82;4.25;;;;;;;;;;5082786;28;20045;-51
2022/10/29 03:09:08;;;;;;;7.35;4.45;;;;;;;;;;5084184;28;20048;-52
2022/10/29 03:11:37;;;;;;;9.57;6.53;;;;;;;;;;5092650;28;20079;-48
2022/10/29 03:14:04;;;;;;;10.05;5.65;;;;;;;;;;5092735;28;20686;-51
2022/10/29 03:16:33;;;;;;;9.35;5.95;;;;;;;;;;5093168;28;20047;-51
2022/10/29 03:19:03;;;;;;;13.25;5.50;;;;;;;;;;5092357;28;20374;-50
2022/10/29 03:21:33;;;;;;;10.05;5.40;;;;;;;;;;5083414;28;20473;-52
2022/10/29 03:24:03;;;;;;;8.60;5.35;;;;;;;;;;5089760;28;20473;-51
2022/10/29 03:26:32;;;;;;;15.05;8.90;;;;;;;;;;5083539;28;20496;-51
2022/10/29 03:28:59;;;;;;;14.20;7.85;;;;;;;;;;5092955;28;20080;-52
2022/10/29 03:31:29;;;;;;;12.23;5.40;;;;;;;;;;5085060;28;20048;-53
2022/10/29 03:33:56;;;;;;;17.13;6.50;;;;;;;;;;5083577;28;20127;-49
2022/10/29 03:36:25;;;;;;;9.80;5.05;;;;;;;;;;5092926;28;20105;-49
2022/10/29 03:38:53;;;;;;;9.82;5.20;;;;;;;;;;5092559;28;20040;-50
2022/10/29 03:41:23;;;;;;;12.90;5.55;;;;;;;;;;5092978;28;20056;-53
2022/10/29 03:43:50;;;;;;;8.85;4.45;;;;;;;;;;5078943;28;20068;-49
2022/10/29 03:46:20;;;;;;;11.75;5.13;;;;;;;;;;5088230;28;20055;-51
2022/10/29 03:48:51;;;;;;;11.07;5.60;;;;;;;;;;5091582;28;20040;-49
2022/10/29 03:51:21;;;;;;;11.45;5.47;;;;;;;;;;5092597;28;20079;-50
2022/10/29 03:53:55;;;;;;;9.50;4.85;;;;;;;;;;5092742;28;20044;-51
2022/10/29 03:56:23;;;;;;;10.32;5.18;;;;;;;;;;5092402;28;20075;-51
2022/10/29 03:58:50;;;;;;;10.90;5.22;;;;;;;;;;5091508;28;20059;-52
2022/10/29 04:01:20;;;;;;;9.77;5.53;;;;;;;;;;5086656;28;20052;-50
2022/10/29 04:03:48;;;;;;;8.70;4.90;;;;;;;;;;5092017;28;20102;-53
2022/10/29 04:06:19;;;;;;;7.38;4.72;;;;;;;;;;5092154;28;20327;-50
2022/10/29 04:08:49;;;;;;;12.10;5.32;;;;;;;;;;5092919;28;20048;-51
2022/10/29 04:11:21;;;;;;;9.88;5.28;;;;;;;;;;5085155;28;20052;-50
2022/10/29 04:13:54;;;;;;;10.50;5.35;;;;;;;;;;5089276;28;20392;-54
2022/10/29 04:16:24;;;;;;;14.02;5.63;;;;;;;;;;5083581;28;20052;-53
2022/10/29 04:18:54;;;;;;;16.63;6.03;;;;;;;;;;5079064;28;20118;-51
2022/10/29 04:21:21;;;;;;;12.43;5.68;;;;;;;;;;5092197;28;20062;-51
2022/10/29 04:23:49;;;;;;;9.43;5.18;;;;;;;;;;5091704;28;20477;-54
2022/10/29 04:26:20;;;;;;;12.55;5.93;;;;;;;;;;5092359;28;20059;-51
2022/10/29 04:28:48;;;;;;;12.95;5.50;;;;;;;;;;5092245;28;20078;-54
2022/10/29 04:31:18;;;;;;;14.15;5.90;;;;;;;;;;5092142;28;20044;-49
2022/10/29 04:33:46;;;;;;;12.43;5.65;;;;;;;;;;5087607;28;20067;-50
2022/10/29 04:36:21;;;;;;;12.18;5.82;;;;;;;;;;5088911;28;20770;-50
2022/10/29 04:38:54;;;;;;;13.65;6.32;;;;;;;;;;5092050;28;20502;-50
2022/10/29 04:41:27;;;;;;;17.30;6.22;;;;;;;;;;5091997;28;20559;-50
2022/10/29 04:43:53;;;;;;;16.73;6.50;;;;;;;;;;5091591;28;20074;-50
2022/10/29 04:46:20;;;;;;;10.77;5.60;;;;;;;;;;5079806;28;20044;-49
2022/10/29 04:48:47;;;;;;;13.10;6.72;;;;;;;;;;5092027;28;20047;-50
2022/10/29 04:51:18;;;;;;;12.98;6.40;;;;;;;;;;5081206;28;20060;-52
2022/10/29 04:53:45;;;;;;;12.80;6.07;;;;;;;;;;5087285;28;20051;-50
2022/10/29 04:56:15;;;;;;;13.88;6.20;;;;;;;;;;5092749;28;20044;-53
2022/10/29 04:58:57;;;;;;;12.50;6.43;;;;;;;;;;5082513;28;20040;-50
2022/10/29 05:01:23;;;;;;;14.50;6.60;;;;;;;;;;5091736;28;20357;-49
2022/10/29 05:03:50;;;;;;;14.30;7.82;;;;;;;;;;5094593;28;20052;-49
2022/10/29 05:06:20;;;;;;;16.67;8.32;;;;;;;;;;5094814;28;20044;-50
2022/10/29 05:08:49;;;;;;;13.85;6.63;;;;;;;;;;5095550;28;20445;-51
2022/10/29 05:11:19;;;;;;;17.38;7.82;;;;;;;;;;5095075;28;20069;-51
2022/10/29 05:13:49;;;;;;;16.70;7.38;;;;;;;;;;5095526;28;20075;-52
2022/10/29 05:16:17;;;;;;;14.00;6.57;;;;;;;;;;5095159;28;20056;-52
2022/10/29 05:18:46;;;;;;;23.60;9.20;;;;;;;;;;5095042;28;20048;-50
2022/10/29 05:21:15;;;;;;;19.40;9.45;;;;;;;;;;5094939;28;20139;-51
2022/10/29 05:23:42;;;;;;;18.52;9.13;;;;;;;;;;5094391;28;20536;-50
2022/10/29 05:26:11;;;;;;;20.52;9.50;;;;;;;;;;5094775;28;20063;-51
2022/10/29 05:28:41;;;;;;;19.92;9.35;;;;;;;;;;5094667;28;20454;-50
2022/10/29 05:31:16;;;;;;;22.23;9.52;;;;;;;;;;5095303;28;20047;-52
2022/10/29 05:33:45;;;;;;;19.77;9.60;;;;;;;;;;5094744;28;20102;-50
2022/10/29 05:36:12;;;;;;;24.02;9.90;;;;;;;;;;5094267;28;20461;-52
2022/10/29 05:38:42;;;;;;;19.70;9.45;;;;;;;;;;5095028;28;20051;-52
2022/10/29 05:41:10;;;;;;;15.77;8.32;;;;;;;;;;5094841;28;20055;-52
2022/10/29 05:43:39;;;;;;;21.30;8.95;;;;;;;;;;5094197;28;20056;-53
2022/10/29 05:46:09;;;;;;;19.60;8.00;;;;;;;;;;5094163;28;20509;-51
2022/10/29 05:48:40;;;;;;;22.02;8.35;;;;;;;;;;5094330;28;20085;-48
2022/10/29 05:51:08;;;;;;;21.77;7.45;;;;;;;;;;5086937;28;20052;-48
2022/10/29 05:53:38;;;;;;;18.63;7.00;;;;;;;;;;5088599;28;20054;-48
2022/10/29 05:56:07;;;;;;;16.88;7.22;;;;;;;;;;5094571;28;20088;-48
2022/10/29 05:58:33;;;;;;;13.52;6.47;;;;;;;;;;5094301;28;20081;-48
2022/10/29 06:01:05;;;;;;;12.48;5.97;;;;;;;;;;5086523;28;20078;-48
2022/10/29 06:03:35;;;;;;;14.10;6.45;;;;;;;;;;5094314;28;20052;-49
2022/10/29 06:06:18;;;;;;;17.58;6.32;;;;;;;;;;5094081;28;20534;-50
2022/10/29 06:08:45;;;;;;;12.35;4.40;;;;;;;;;;5094370;28;20060;-48
2022/10/29 06:11:14;;;;;;;10.07;5.35;;;;;;;;;;5096798;28;20063;-48
2022/10/29 06:13:44;;;;;;;10.60;5.43;;;;;;;;;;5093060;28;20449;-49
2022/10/29 06:16:12;;;;;;;10.82;4.50;;;;;;;;;;5093530;28;20052;-49
2022/10/29 06:18:42;;;;;;;8.98;4.75;;;;;;;;;;5092210;28;20051;-51
2022/10/29 06:21:23;;;;;;;10.23;4.45;;;;;;;;;;5094217;28;20087;-49
2022/10/29 06:23:59;;;;;;;8.50;4.50;;;;;;;;;;5083432;28;20487;-49
2022/10/29 06:26:28;;;;;;;9.70;4.43;;;;;;;;;;5093225;28;20070;-50
2022/10/29 06:28:57;;;;;;;22.45;5.50;;;;;;;;;;5092041;28;20051;-52
2022/10/29 06:31:27;;;;;;;9.02;3.47;;;;;;;;;;5093268;28;20483;-52
2022/10/29 06:33:57;;;;;;;8.98;3.67;;;;;;;;;;5092100;28;20134;-48
2022/10/29 06:36:31;;;;;;;9.27;4.15;;;;;;;;;;5090859;28;20471;-49
2022/10/29 06:38:58;;;;;;;7.63;3.50;;;;;;;;;;5086174;28;20109;-49
2022/10/29 06:41:26;;;;;;;9.15;3.50;;;;;;;;;;5092814;28;20055;-49
2022/10/29 06:43:56;;;;;;;6.50;2.97;;;;;;;;;;5092854;28;20087;-51
2022/10/29 06:46:22;;;;;;;4.45;2.80;;;;;;;;;;5087447;28;20044;-49
2022/10/29 06:48:51;;;;;;;8.20;3.22;;;;;;;;;;5091749;28;20047;-50
2022/10/29 06:51:21;;;;;;;8.23;2.97;;;;;;;;;;5092448;28;20040;-49
2022/10/29 06:53:59;;;;;;;6.80;3.17;;;;;;;;;;5089094;28;20051;-49
2022/10/29 06:56:27;;;;;;;7.15;2.80;;;;;;;;;;5091278;28;20346;-52
2022/10/29 06:58:56;;;;;;;6.20;2.50;;;;;;;;;;5090322;28;20485;-51
2022/10/29 07:01:25;;;;;;;6.45;2.78;;;;;;;;;;5086019;28;20048;-52
2022/10/29 07:03:55;;;;;;;5.15;2.53;;;;;;;;;;5092163;28;20484;-48
2022/10/29 07:06:25;;;;;;;8.07;2.35;;;;;;;;;;5092155;28;20052;-50
2022/10/29 07:08:55;;;;;;;8.20;2.67;;;;;;;;;;5091824;28;20177;-50
2022/10/29 07:11:24;;;;;;;9.38;2.63;;;;;;;;;;5090907;28;20048;-51
2022/10/29 07:13:53;;;;;;;5.90;2.60;;;;;;;;;;5091952;28;20052;-49
2022/10/29 07:16:23;;;;;;;5.25;2.65;;;;;;;;;;5089087;28;20040;-49
2022/10/29 07:18:52;;;;;;;10.20;3.05;;;;;;;;;;5092501;28;20048;-49
2022/10/29 07:21:21;;;;;;;7.63;2.83;;;;;;;;;;5089778;28;20373;-52
2022/10/29 07:23:50;;;;;;;12.32;2.92;;;;;;;;;;5091939;28;20052;-49
2022/10/29 07:26:20;;;;;;;6.78;2.20;;;;;;;;;;5089729;28;20047;-49
2022/10/29 07:28:50;;;;;;;9.15;2.90;;;;;;;;;;5090956;28;20047;-48
2022/10/29 07:31:18;;;;;;;5.97;3.00;;;;;;;;;;5088232;28;20055;-48
2022/10/29 07:33:45;;;;;;;10.07;3.38;;;;;;;;;;5088680;28;20062;-48
2022/10/29 07:36:13;;;;;;;9.43;3.33;;;;;;;;;;5090962;28;20299;-49
2022/10/29 07:38:41;;;;;;;12.05;3.42;;;;;;;;;;5090882;28;20036;-52
2022/10/29 07:41:08;;;;;;;9.70;3.15;;;;;;;;;;5089165;28;20052;-48
2022/10/29 07:43:38;;;;;;;9.60;3.28;;;;;;;;;;5090556;28;20059;-48
2022/10/29 07:46:08;;;;;;;8.13;3.03;;;;;;;;;;5079819;28;20054;-48
2022/10/29 07:48:35;;;;;;;7.90;2.53;;;;;;;;;;5092296;28;20044;-49
2022/10/29 07:51:02;;;;;;;14.20;3.17;;;;;;;;;;5092614;28;20056;-49
2022/10/29 07:53:36;;;;;;;6.18;2.42;;;;;;;;;;5090386;28;20048;-51
2022/10/29 07:56:06;;;;;;;10.03;2.27;;;;;;;;;;5091332;28;20051;-51
2022/10/29 07:58:36;;;;;;;6.40;2.05;;;;;;;;;;5090371;28;20294;-52
2022/10/29 08:01:18;;;;;;;8.30;2.58;;;;;;;;;;5091784;28;20087;-51
2022/10/29 08:03:47;;;;;;;11.43;2.40;;;;;;;;;;5091700;28;20044;-53
2022/10/29 08:06:15;;;;;;;8.98;2.50;;;;;;;;;;5091513;28;20480;-54
2022/10/29 08:08:49;;;;;;;7.82;2.10;;;;;;;;;;5091621;28;20472;-50
2022/10/29 08:11:19;;;;;;;6.53;2.13;;;;;;;;;;5091389;28;20043;-52
2022/10/29 08:13:48;;;;;;;7.88;2.45;;;;;;;;;;5088555;28;20052;-52
2022/10/29 08:16:31;;;;;;;5.75;2.25;;;;;;;;;;5091084;28;20047;-51
2022/10/29 08:19:02;;;;;;;6.47;1.90;;;;;;;;;;5091250;28;20453;-53
2022/10/29 08:21:31;;;;;;;11.15;2.35;;;;;;;;;;5091917;28;20040;-50
2022/10/29 08:24:00;;;;;;;5.65;1.80;;;;;;;;;;5091507;28;20047;-52
2022/10/29 08:26:27;;;;;;;6.30;1.98;;;;;;;;;;5093839;28;20048;-50
2022/10/29 08:28:54;;;;;;;8.50;2.47;;;;;;;;;;5094933;28;20055;-51
2022/10/29 08:31:29;;;;;;;9.88;1.95;;;;;;;;;;5095261;28;20086;-49
2022/10/29 08:33:55;;;;;;;6.37;1.90;;;;;;;;;;5095424;28;20127;-50
2022/10/29 08:36:25;;;;;;;8.80;1.90;;;;;;;;;;5096185;28;20044;-52
2022/10/29 08:38:55;;;;;;;4.47;2.08;;;;;;;;;;5096127;28;20055;-53
2022/10/29 08:41:34;;;;;;;9.35;2.53;;;;;;;;;;5092441;28;20144;-53
2022/10/29 08:44:32;;;;;;;7.75;2.10;;;;;;;;;;5093092;28;20070;-51
2022/10/29 08:47:11;;;;;;;7.13;1.58;;;;;;;;;;5045337;28;20517;-54
2022/10/29 08:49:44;;;;;;;5.80;1.73;;;;;;;;;;5082774;28;20044;-50
2022/10/29 08:52:18;;;;;;;4.60;1.75;;;;;;;;;;5088907;28;20076;-51
2022/10/29 08:54:54;;;;;;;6.18;2.22;;;;;;;;;;5090005;28;20040;-53
2022/10/29 08:57:23;;;;;;;4.55;1.83;;;;;;;;;;5091993;28;20048;-52
2022/10/29 08:59:58;;;;;;;5.10;2.15;;;;;;;;;;5094268;28;20048;-52
2022/10/29 09:02:28;;;;;;;10.88;2.22;;;;;;;;;;5083975;28;20500;-50
2022/10/29 09:05:04;;;;;;;10.57;2.55;;;;;;;;;;5093708;28;20052;-49
2022/10/29 09:07:48;;;;;;;7.82;2.05;;;;;;;;;;5091965;28;20479;-51
2022/10/29 09:10:31;;;;;;;10.45;2.38;;;;;;;;;;5092028;28;20055;-50
2022/10/29 09:13:13;;;;;;;7.05;2.15;;;;;;;;;;5093825;28;20535;-50
2022/10/29 09:16:03;;;;;;;6.38;2.20;;;;;;;;;;5093918;28;20097;-51
2022/10/29 09:18:37;;;;;;;5.78;2.15;;;;;;;;;;5073013;28;20084;-50
2022/10/29 09:21:09;;;;;;;7.80;1.80;;;;;;;;;;5090607;28;20628;-54
2022/10/29 09:23:44;;;;;;;7.53;2.08;;;;;;;;;;5093722;28;20455;-52
2022/10/29 09:26:13;;;;;;;;;;;;;;;;;;5095232;28;20059;-50
2022/10/29 09:28:48;;;;;;;5.95;1.75;;;;;;;;;;5094796;28;19924;-53
2022/10/29 09:31:25;;;;;;;6.57;1.83;;;;;;;;;;5094743;28;20052;-51
2022/10/29 09:34:02;;;;;;;6.80;1.67;;;;;;;;;;5094676;28;20075;-53
2022/10/29 09:36:32;;;;;;;9.23;2.00;;;;;;;;;;5093735;28;20377;-53
2022/10/29 09:39:01;;;;;;;12.52;2.47;;;;;;;;;;5094584;28;20126;-51
2022/10/29 09:41:31;;;;;;;4.35;2.50;;;;;;;;;;5074382;28;20453;-50
2022/10/29 09:44:02;;;;;;;5.50;1.80;;;;;;;;;;5076436;28;20083;-49
2022/10/29 09:46:34;;;;;;;4.85;1.67;;;;;;;;;;5083221;28;20068;-52
2022/10/29 09:49:10;;;;;;;6.03;1.92;;;;;;;;;;5094952;28;20044;-50
2022/10/29 09:51:42;;;;;;;5.35;1.65;;;;;;;;;;5091323;28;20056;-49
2022/10/29 09:54:12;;;;;;;8.88;2.08;;;;;;;;;;5089876;28;20063;-49
2022/10/29 09:56:42;;;;;;;9.10;1.70;;;;;;;;;;5094098;28;20105;-49
2022/10/29 09:59:17;;;;;;;6.15;1.55;;;;;;;;;;5094750;28;20044;-50
2022/10/29 10:01:49;;;;;;;9.13;1.67;;;;;;;;;;5094064;28;20601;-49
2022/10/29 10:04:33;;;;;;;6.95;1.50;;;;;;;;;;5094337;28;20056;-49
2022/10/29 10:07:05;;;;;;;3.90;1.77;;;;;;;;;;5094612;28;20075;-50
2022/10/29 10:09:51;;;;;;;10.30;2.40;;;;;;;;;;5093797;28;20049;-50
2022/10/29 10:12:17;;;;;;;;;;;;;;;;;;5088589;28;20083;-50
2022/10/29 10:14:47;;;;;;;6.28;1.48;;;;;;;;;;5094447;28;19939;-50
2022/10/29 10:17:16;;;;;;;6.63;1.60;;;;;;;;;;5089161;28;20492;-50
2022/10/29 10:19:48;;;;;;;6.55;1.85;;;;;;;;;;5094056;28;20070;-50
2022/10/29 10:22:29;;;;;;;8.73;1.92;;;;;;;;;;5093615;28;20770;-52
2022/10/29 10:24:59;;;;;;;4.32;1.38;;;;;;;;;;5093903;28;20052;-50
2022/10/29 10:27:30;;;;;;;5.63;1.50;;;;;;;;;;5093680;28;20146;-50
2022/10/29 10:30:16;;;;;;;5.22;1.75;;;;;;;;;;5094098;28;20388;-51
2022/10/29 10:32:46;;;;;;;4.68;1.63;;;;;;;;;;5083561;28;20139;-52
2022/10/29 10:35:31;;;;;;;5.97;1.63;;;;;;;;;;5093353;28;20071;-53
2022/10/29 10:38:10;;;;;;;6.47;1.85;;;;;;;;;;5080717;28;20047;-50
2022/10/29 10:40:41;;;;;;;7.32;1.63;;;;;;;;;;5092983;28;20059;-50
2022/10/29 10:43:16;;;;;;;10.13;1.83;;;;;;;;;;5076780;28;20157;-50
2022/10/29 10:45:46;;;;;;;6.22;1.42;;;;;;;;;;5088323;28;20063;-50
2022/10/29 10:48:17;;;;;;;6.97;1.67;;;;;;;;;;5092357;28;20140;-50
2022/10/29 10:50:47;;;;;;;7.43;1.30;;;;;;;;;;5093230;28;20109;-51
2022/10/29 10:53:29;;;;;;;7.28;1.67;;;;;;;;;;5088066;28;20052;-50
2022/10/29 10:55:59;;;;;;;6.90;1.40;;;;;;;;;;5093103;28;20071;-50
2022/10/29 10:58:32;;;;;;;10.45;1.85;;;;;;;;;;5091856;28;20445;-51
2022/10/29 11:01:02;;;;;;;5.32;1.58;;;;;;;;;;5080259;28;20052;-54
2022/10/29 11:03:40;;;;;;;6.85;1.67;;;;;;;;;;5094294;28;20043;-51
2022/10/29 11:06:14;;;;;;;4.57;1.20;;;;;;;;;;5092916;28;20062;-51
2022/10/29 11:08:45;;;;;;;8.88;1.88;;;;;;;;;;5093131;28;20048;-50
2022/10/29 11:11:15;;;;;;;4.13;1.35;;;;;;;;;;5093472;28;20040;-52
2022/10/29 11:13:45;;;;;;;6.63;1.73;;;;;;;;;;5093164;28;20101;-50
2022/10/29 11:16:23;;;;;;;6.43;1.90;;;;;;;;;;5092068;28;20052;-51
2022/10/29 11:18:55;;;;;;;5.68;1.67;;;;;;;;;;5092656;28;20369;-53
2022/10/29 11:21:32;;;;;;;8.50;1.90;;;;;;;;;;5093080;28;20052;-52
2022/10/29 11:24:03;;;;;;;7.03;1.35;;;;;;;;;;5092715;28;20043;-51
2022/10/29 11:26:34;;;;;;;7.50;2.10;;;;;;;;;;5093178;28;20058;-51
2022/10/29 11:29:03;;;;;;;5.97;1.73;;;;;;;;;;5092621;28;20063;-53
2022/10/29 11:31:37;;;;;;;9.63;1.63;;;;;;;;;;5084814;28;20060;-50
2022/10/29 11:34:10;;;;;;;5.57;1.00;;;;;;;;;;5088784;28;20472;-50
2022/10/29 11:36:43;;;;;;;5.35;1.55;;;;;;;;;;5092670;28;20048;-53
2022/10/29 11:39:13;;;;;;;6.28;1.50;;;;;;;;;;5090337;28;20055;-49
2022/10/29 11:41:47;;;;;;;5.05;1.45;;;;;;;;;;5092997;28;20048;-50
2022/10/29 11:44:19;;;;;;;6.15;1.60;;;;;;;;;;5091797;28;20052;-53
2022/10/29 11:46:54;;;;;;;5.95;1.35;;;;;;;;;;5092474;28;20067;-50
2022/10/29 11:49:26;;;;;;;3.22;1.17;;;;;;;;;;5091917;28;20516;-50
2022/10/29 11:52:03;;;;;;;7.35;1.77;;;;;;;;;;5090279;28;20051;-50
2022/10/29 11:54:40;;;;;;;4.35;1.13;;;;;;;;;;5091763;28;20362;-49
2022/10/29 11:57:10;;;;;;;5.82;1.40;;;;;;;;;;5089741;28;20365;-49
2022/10/29 11:59:42;;;;;;;7.45;1.10;;;;;;;;;;5093876;28;20052;-50
2022/10/29 12:02:20;;;;;;;6.82;1.35;;;;;;;;;;5096155;28;20056;-49
2022/10/29 12:04:53;;;;;;;4.00;1.23;;;;;;;;;;5096077;28;20379;-50
2022/10/29 12:07:32;;;;;;;8.02;1.50;;;;;;;;;;5096130;28;20052;-49
2022/10/29 12:10:25;;;;;;;6.38;1.67;;;;;;;;;;5096329;28;20048;-49
2022/10/29 12:12:56;;;;;;;5.18;1.42;;;;;;;;;;5093896;28;20062;-50
2022/10/29 12:15:34;;;;;;;4.95;1.10;;;;;;;;;;5092686;28;20395;-49
2022/10/29 12:18:10;;;;;;;5.20;0.90;;;;;;;;;;5082493;28;20113;-50
2022/10/29 12:20:52;;;;;;;2.67;0.90;;;;;;;;;;5096000;28;20044;-50
2022/10/29 12:23:28;;;;;;;5.97;1.17;;;;;;;;;;5096111;28;20052;-50
2022/10/29 12:26:03;;;;;;;7.90;1.42;;;;;;;;;;5093973;28;20052;-50
2022/10/29 12:28:38;;;;;;;6.63;1.25;;;;;;;;;;5095350;28;20420;-50
2022/10/29 12:31:09;;;;;;;5.07;1.10;;;;;;;;;;5087411;28;20484;-50
2022/10/29 12:33:42;;;;;;;5.43;1.20;;;;;;;;;;5091130;28;20056;-51
2022/10/29 12:36:17;;;;;;;5.30;1.33;;;;;;;;;;5095858;28;20052;-51
2022/10/29 12:38:53;;;;;;;2.15;0.90;;;;;;;;;;5095573;28;20444;-49
2022/10/29 12:41:24;;;;;;;3.17;0.90;;;;;;;;;;5076572;28;20076;-50
2022/10/29 12:43:53;;;;;;;4.70;1.52;;;;;;;;;;5087522;28;20064;-50
2022/10/29 12:46:24;;;;;;;4.07;1.00;;;;;;;;;;5083144;28;20499;-53
2022/10/29 12:48:56;;;;;;;3.20;0.93;;;;;;;;;;5095685;28;20056;-50
2022/10/29 12:51:27;;;;;;;3.35;0.90;;;;;;;;;;5094414;28;20048;-50
2022/10/29 12:54:07;;;;;;;5.45;1.52;;;;;;;;;;5088088;28;20551;-51
2022/10/29 12:56:36;;;;;;;3.30;0.88;;;;;;;;;;5095389;28;20067;-52
2022/10/29 12:59:23;;;;;;;3.78;1.02;;;;;;;;;;5095165;28;20075;-51
2022/10/29 13:01:52;;;;;;;3.95;0.90;;;;;;;;;;5082891;28;20043;-50
2022/10/29 13:04:26;;;;;;;6.60;1.17;;;;;;;;;;5095345;28;20055;-50
2022/10/29 13:06:59;;;;;;;5.53;1.42;;;;;;;;;;5095396;28;20055;-53
2022/10/29 13:09:33;;;;;;;3.80;1.40;;;;;;;;;;5091783;28;20071;-54
2022/10/29 13:12:04;;;;;;;7.45;1.40;;;;;;;;;;5094275;28;20059;-51
2022/10/29 13:14:38;;;;;;;5.38;1.10;;;;;;;;;;5095504;28;20136;-50
2022/10/29 13:17:07;;;;;;;4.95;1.27;;;;;;;;;;5082659;28;20052;-51
2022/10/29 13:19:50;;;;;;;4.70;1.15;;;;;;;;;;5082855;28;20397;-49
2022/10/29 13:22:45;;;;;;;6.75;1.50;;;;;;;;;;5094603;28;20066;-51
2022/10/29 13:25:31;;;;;;;5.10;1.17;;;;;;;;;;5059789;28;20122;-51
2022/10/29 13:28:24;;;;;;;3.15;0.93;;;;;;;;;;5086289;28;20051;-50
2022/10/29 13:30:54;;;;;;;5.40;1.20;;;;;;;;;;5094353;28;20055;-50
2022/10/29 13:33:42;;;;;;;2.05;0.60;;;;;;;;;;5094927;28;20048;-54
2022/10/29 13:36:41;;;;;;;6.25;0.93;;;;;;;;;;5094712;28;20185;-52
2022/10/29 13:39:18;;;;;;;6.35;0.98;;;;;;;;;;5094830;28;20048;-51
2022/10/29 13:41:50;;;;;;;6.93;1.73;;;;;;;;;;5094851;28;20052;-50
2022/10/29 13:44:20;;;;;;;5.13;1.30;;;;;;;;;;5093882;28;20064;-49
2022/10/29 13:46:51;;;;;;;4.13;1.20;;;;;;;;;;5094995;28;20059;-50
2022/10/29 13:49:46;;;;;;;5.38;1.20;;;;;;;;;;5094220;28;20048;-49
2022/10/29 13:52:23;;;;;;;5.30;1.90;;;;;;;;;;5082342;28;20051;-50
2022/10/29 13:55:00;;;;;;;3.28;1.08;;;;;;;;;;5089814;28;20551;-49
2022/10/29 13:57:31;;;;;;;2.92;1.15;;;;;;;;;;5094775;28;20048;-50
2022/10/29 14:00:16;;;;;;;6.22;1.08;;;;;;;;;;5091875;28;20052;-50
2022/10/29 14:03:00;;;;;;;3.17;1.23;;;;;;;;;;5093882;28;20071;-51
2022/10/29 14:05:32;;;;;;;6.53;1.48;;;;;;;;;;5093984;28;20063;-49
2022/10/29 14:08:03;;;;;;;4.30;1.55;;;;;;;;;;5093211;28;20070;-51
2022/10/29 14:10:32;;;;;;;6.72;1.23;;;;;;;;;;5086747;28;20451;-50
2022/10/29 14:13:08;;;;;;;5.70;1.60;;;;;;;;;;5093276;28;20052;-51
2022/10/29 14:15:41;;;;;;;7.85;1.50;;;;;;;;;;5094107;28;20047;-51
2022/10/29 14:18:18;;;;;;;3.05;1.10;;;;;;;;;;5093912;28;20480;-54
2022/10/29 14:20:54;;;;;;;7.28;1.50;;;;;;;;;;5094045;28;20044;-53
2022/10/29 14:23:25;;;;;;;6.50;1.30;;;;;;;;;;5092574;28;20479;-53
2022/10/29 14:25:54;;;;;;;4.47;1.23;;;;;;;;;;5091435;28;20147;-50
2022/10/29 14:28:24;;;;;;;3.42;0.93;;;;;;;;;;5094161;28;20048;-50
2022/10/29 14:31:09;;;;;;;4.22;2.00;;;;;;;;;;5083609;28;20047;-51
2022/10/29 14:33:39;;;;;;;7.57;1.60;;;;;;;;;;5083754;28;20056;-52
2022/10/29 14:36:12;;;;;;;4.38;1.55;;;;;;;;;;5093426;28;20048;-53
2022/10/29 14:38:50;;;;;;;5.45;1.35;;;;;;;;;;5094015;28;20063;-52
2022/10/29 14:41:21;;;;;;;4.97;1.35;;;;;;;;;;5093056;28;20135;-52
2022/10/29 14:43:54;;;;;;;6.05;0.93;;;;;;;;;;5093266;28;20465;-53
2022/10/29 14:46:29;;;;;;;8.98;1.70;;;;;;;;;;5081027;28;20076;-53
2022/10/29 14:49:09;;;;;;;;;;;;;;;;;;5083762;28;20048;-53
2022/10/29 14:51:45;;;;;;;8.00;1.48;;;;;;;;;;5084853;28;19941;-51
2022/10/29 14:54:17;;;;;;;5.38;1.10;;;;;;;;;;5081458;28;20052;-50
2022/10/29 14:56:48;;;;;;;5.30;1.38;;;;;;;;;;5087099;28;20075;-50
2022/10/29 14:59:24;;;;;;;4.03;1.27;;;;;;;;;;5090075;28;20052;-50
2022/10/29 15:01:55;;;;;;;5.93;1.60;;;;;;;;;;5081716;28;20692;-50
2022/10/29 15:04:28;;;;;;;8.13;1.20;;;;;;;;;;5093048;28;20567;-51
2022/10/29 15:06:56;;;;;;;17.45;10.80;;;;;;;;;;5090165;28;20053;-50
2022/10/29 15:09:27;;;;;;;43.10;23.92;;;;;;;;;;5092975;28;20109;-50